Time;durP1;ratioP1;P1;durP2;ratioP2;P2;SDS_P1;SDS_P2;PMS_P1;PMS_P2;Temp;Humidity;BMP_temperature;BMP_pressure;BME280_temperature;BME280_humidity;BME280_pressure;Samples;Min_cycle;Max_cycle;Signal;HPM_P1;HPM_P2
2021/12/01 00:01:13;;;;;;;21.45;10.90;;;;;;;2.23;99.06;97398.44;5137961;27;20399;-76
2021/12/01 00:03:42;;;;;;;20.38;9.05;;;;;;;2.26;98.51;97405.41;5137801;27;20066;-77
2021/12/01 00:06:10;;;;;;;24.83;11.07;;;;;;;2.16;99.17;97402.44;5137705;27;20047;-78
2021/12/01 00:08:38;;;;;;;32.00;12.77;;;;;;;2.09;100.00;97420.63;5137857;27;20122;-76
2021/12/01 00:11:05;;;;;;;38.97;14.75;;;;;;;2.15;99.98;97420.25;5137763;27;20104;-77
2021/12/01 00:13:33;;;;;;;26.55;12.77;;;;;;;2.16;99.84;97431.75;5137433;27;20047;-77
2021/12/01 00:16:01;;;;;;;36.88;18.65;;;;;;;2.08;99.92;97432.22;5137320;27;20047;-76
2021/12/01 00:18:29;;;;;;;23.63;13.52;;;;;;;2.30;99.50;97439.78;5137726;27;20039;-76
2021/12/01 00:20:58;;;;;;;23.63;14.27;;;;;;;2.29;99.39;97442.50;5137512;27;20043;-77
2021/12/01 00:23:26;;;;;;;22.13;10.88;;;;;;;2.37;98.01;97442.06;5137415;27;20543;-76
2021/12/01 00:25:54;;;;;;;29.48;12.55;;;;;;;2.28;98.49;97456.78;5136952;27;20119;-77
2021/12/01 00:28:21;;;;;;;22.73;11.43;;;;;;;2.34;98.42;97461.72;5136858;27;20054;-76
2021/12/01 00:30:49;;;;;;;23.88;11.55;;;;;;;2.20;98.97;97467.03;5137372;27;20449;-78
2021/12/01 00:33:22;;;;;;;29.67;13.52;;;;;;;2.28;98.57;97484.28;5137175;27;20488;-76
2021/12/01 00:35:51;;;;;;;29.08;13.02;;;;;;;2.37;98.09;97488.19;5138240;27;20389;-77
2021/12/01 00:38:21;;;;;;;32.63;13.77;;;;;;;2.24;98.48;97490.72;5136722;27;20047;-76
2021/12/01 00:40:49;;;;;;;22.13;11.35;;;;;;;2.15;98.88;97492.16;5135869;27;20126;-76
2021/12/01 00:43:18;;;;;;;23.75;12.63;;;;;;;2.10;99.53;97506.69;5136506;27;20052;-78
2021/12/01 00:45:50;;;;;;;20.77;12.27;;;;;;;2.11;99.55;97503.94;5137131;27;20043;-77
2021/12/01 00:48:18;;;;;;;20.33;11.13;;;;;;;2.10;98.94;97520.00;5137070;27;20047;-76
2021/12/01 00:50:45;;;;;;;20.02;10.75;;;;;;;2.13;99.86;97527.81;5136734;27;20051;-77
2021/12/01 00:53:13;;;;;;;19.48;11.02;;;;;;;2.26;98.59;97538.59;5136786;27;20054;-77
2021/12/01 00:55:43;;;;;;;24.05;11.75;;;;;;;2.21;98.58;97544.19;5136958;27;20043;-77
2021/12/01 00:58:12;;;;;;;20.48;10.02;;;;;;;2.12;99.32;97542.94;5136414;27;20043;-77
2021/12/01 01:00:41;;;;;;;18.73;10.27;;;;;;;2.13;99.13;97555.31;5136574;27;20047;-79
2021/12/01 01:03:09;;;;;;;21.52;11.32;;;;;;;2.22;98.84;97558.38;5136614;27;20055;-77
2021/12/01 01:05:37;;;;;;;23.05;12.40;;;;;;;2.33;97.88;97557.75;5136707;27;20054;-77
2021/12/01 01:08:05;;;;;;;19.95;10.70;;;;;;;2.19;98.28;97562.06;5136746;27;20070;-77
2021/12/01 01:10:57;;;;;;;21.50;10.77;;;;;;;2.27;97.81;97570.50;5135308;27;20054;-77
2021/12/01 01:16:24;;;;;;;23.23;11.57;;;;;;;2.23;98.09;97587.56;5073050;28;20059;-76
2021/12/01 01:18:54;;;;;;;21.48;11.80;;;;;;;2.15;97.85;97593.38;5073231;28;20072;-76
2021/12/01 01:21:22;;;;;;;19.92;11.05;;;;;;;2.21;98.15;97597.47;5073121;28;20060;-76
2021/12/01 01:23:50;;;;;;;21.73;11.95;;;;;;;2.07;98.79;97606.28;5072986;28;20049;-78
2021/12/01 01:26:19;;;;;;;23.67;11.90;;;;;;;2.30;97.77;97607.59;5072539;28;20165;-77
2021/12/01 01:28:48;;;;;;;22.38;12.00;;;;;;;2.29;96.99;97621.88;5052895;28;20045;-77
2021/12/01 01:31:17;;;;;;;24.13;12.93;;;;;;;2.11;98.02;97623.78;5052724;28;20142;-77
2021/12/01 01:33:44;;;;;;;20.70;11.82;;;;;;;2.16;97.97;97626.19;5052814;28;20087;-76
2021/12/01 01:36:12;;;;;;;21.63;11.30;;;;;;;2.29;97.33;97637.88;5052754;28;20051;-78
2021/12/01 01:38:40;;;;;;;20.83;11.18;;;;;;;2.26;97.25;97646.03;5052705;28;20155;-77
2021/12/01 01:41:10;;;;;;;18.73;10.30;;;;;;;2.16;97.44;97650.16;5052434;28;20629;-77
2021/12/01 01:43:39;;;;;;;19.08;10.30;;;;;;;2.17;97.08;97659.84;5054259;28;20515;-76
2021/12/01 01:46:08;;;;;;;19.95;11.40;;;;;;;2.22;96.37;97673.75;5052541;28;20074;-77
2021/12/01 01:48:45;;;;;;;19.63;10.73;;;;;;;1.98;96.74;97687.53;5052677;28;20608;-77
2021/12/01 01:51:13;;;;;;;18.50;11.05;;;;;;;2.08;96.86;97703.00;5061347;28;20057;-77
2021/12/01 01:53:41;;;;;;;19.77;10.98;;;;;;;1.79;98.12;97706.31;5110111;27;20055;-76
2021/12/01 01:56:10;;;;;;;21.83;11.85;;;;;;;1.82;98.07;97710.59;5135340;27;20070;-76
2021/12/01 01:58:37;;;;;;;19.17;11.32;;;;;;;1.84;97.80;97719.41;5135312;27;20043;-77
2021/12/01 02:01:08;;;;;;;20.45;11.20;;;;;;;1.82;97.71;97730.13;5135723;27;20118;-77
2021/12/01 02:03:38;;;;;;;23.08;12.25;;;;;;;1.91;97.25;97742.06;5137046;27;20557;-76
2021/12/01 02:06:06;;;;;;;20.85;11.70;;;;;;;1.76;98.12;97758.88;5135719;27;20047;-76
2021/12/01 02:08:36;;;;;;;19.73;11.50;;;;;;;1.86;97.63;97765.44;5135105;27;20035;-77
2021/12/01 02:11:10;;;;;;;22.30;12.23;;;;;;;1.83;97.33;97774.44;5135229;27;20047;-77
2021/12/01 02:13:38;;;;;;;20.80;12.25;;;;;;;1.79;97.62;97782.66;5135201;27;20050;-77
2021/12/01 02:16:07;;;;;;;22.23;13.07;;;;;;;1.78;98.03;97780.94;5135334;27;20118;-79
2021/12/01 02:18:35;;;;;;;24.70;12.80;;;;;;;1.76;97.84;97791.69;5135173;27;20471;-77
2021/12/01 02:21:10;;;;;;;21.15;12.90;;;;;;;1.69;98.95;97811.59;5135084;27;20444;-79
2021/12/01 02:23:40;;;;;;;22.95;13.23;;;;;;;1.70;98.85;97806.16;5135027;27;20044;-76
2021/12/01 02:26:08;;;;;;;23.60;13.98;;;;;;;1.68;98.59;97813.38;5134876;27;20039;-77
2021/12/01 02:28:37;;;;;;;24.75;13.30;;;;;;;1.76;98.40;97817.44;5135094;27;20071;-76
2021/12/01 02:31:04;;;;;;;22.75;13.52;;;;;;;1.79;98.45;97825.25;5135077;27;20361;-76
2021/12/01 02:33:32;;;;;;;24.40;13.20;;;;;;;1.70;98.13;97831.94;5134972;27;20043;-77
2021/12/01 02:35:59;;;;;;;23.50;13.27;;;;;;;1.80;97.66;97841.16;5135042;27;20122;-76
2021/12/01 02:38:28;;;;;;;23.88;12.98;;;;;;;1.76;97.21;97841.38;5134605;27;20122;-79
2021/12/01 02:40:56;;;;;;;22.20;12.90;;;;;;;1.77;97.33;97849.31;5134899;27;20401;-77
2021/12/01 02:43:24;;;;;;;22.05;12.73;;;;;;;1.79;96.89;97854.53;5134739;27;20085;-77
2021/12/01 02:45:53;;;;;;;23.95;13.25;;;;;;;1.78;97.26;97855.47;5134757;27;20043;-76
2021/12/01 02:48:22;;;;;;;26.00;14.68;;;;;;;1.79;96.78;97862.50;5134612;27;20039;-77
2021/12/01 02:50:50;;;;;;;36.30;16.77;;;;;;;1.78;96.99;97867.00;5134438;27;20059;-76
2021/12/01 02:53:20;;;;;;;63.22;23.77;;;;;;;1.79;96.29;97879.38;5134046;27;20066;-77
2021/12/01 02:55:53;;;;;;;57.70;26.67;;;;;;;1.82;96.51;97878.31;5135314;27;20491;-77
2021/12/01 02:58:21;;;;;;;43.97;22.98;;;;;;;1.78;96.95;97882.09;5135834;27;20122;-77
2021/12/01 03:00:49;;;;;;;53.15;22.50;;;;;;;1.82;95.81;97888.97;5134475;27;20130;-76
2021/12/01 03:03:17;;;;;;;74.03;26.83;;;;;;;1.87;95.19;97902.94;5134439;27;20051;-76
2021/12/01 03:05:47;;;;;;;41.30;18.05;;;;;;;1.79;95.32;97902.44;5134470;27;20073;-77
2021/12/01 03:08:15;;;;;;;35.42;15.48;;;;;;;1.85;95.58;97905.66;5134194;27;20039;-77
2021/12/01 03:10:45;;;;;;;35.55;15.40;;;;;;;1.84;95.55;97903.94;5134260;27;20047;-78
2021/12/01 03:13:14;;;;;;;47.50;18.65;;;;;;;1.79;95.46;97921.97;5134252;27;20047;-77
2021/12/01 03:15:42;;;;;;;65.13;21.55;;;;;;;1.74;96.31;97930.16;5134250;27;20118;-77
2021/12/01 03:18:10;;;;;;;44.20;17.38;;;;;;;1.72;96.35;97936.53;5134239;27;20043;-76
2021/12/01 03:20:37;;;;;;;37.80;16.67;;;;;;;1.70;97.06;97928.59;5134330;27;20070;-77
2021/12/01 03:23:05;;;;;;;42.05;17.67;;;;;;;1.67;96.73;97944.75;5133926;27;20073;-77
2021/12/01 03:25:34;;;;;;;45.35;17.23;;;;;;;1.62;97.05;97952.09;5134178;27;20050;-77
2021/12/01 03:28:01;;;;;;;53.42;19.38;;;;;;;1.74;97.29;97959.44;5134119;27;20085;-76
2021/12/01 03:30:33;;;;;;;78.05;22.33;;;;;;;1.64;96.70;97963.53;5134185;27;20077;-76
2021/12/01 03:33:01;;;;;;;39.63;17.75;;;;;;;1.70;96.64;97973.00;5136434;27;20054;-76
2021/12/01 03:35:29;;;;;;;33.58;16.30;;;;;;;1.69;96.68;97974.78;5138313;27;20396;-77
2021/12/01 03:37:56;;;;;;;41.47;17.08;;;;;;;1.73;96.43;97989.69;5138475;27;20122;-79
2021/12/01 03:40:24;;;;;;;36.13;17.17;;;;;;;1.79;96.13;97991.19;5138364;27;20439;-77
2021/12/01 03:42:52;;;;;;;55.78;20.55;;;;;;;1.73;96.53;98013.63;5138328;27;20071;-76
2021/12/01 03:45:19;;;;;;;47.67;18.20;;;;;;;1.66;96.96;98022.88;5138267;27;20094;-77
2021/12/01 03:47:49;;;;;;;45.88;17.67;;;;;;;1.66;97.29;98030.84;5138240;27;20492;-77
2021/12/01 03:50:16;;;;;;;53.40;20.13;;;;;;;1.67;97.02;98029.06;5137422;27;20150;-76
2021/12/01 03:52:44;;;;;;;58.63;20.15;;;;;;;1.72;96.47;98059.81;5138043;27;20043;-76
2021/12/01 03:55:12;;;;;;;52.78;19.48;;;;;;;1.72;96.66;98065.16;5138124;27;20043;-77
2021/12/01 03:57:39;;;;;;;52.45;19.85;;;;;;;1.73;96.29;98072.19;5138023;27;20131;-77
2021/12/01 04:00:10;;;;;;;37.22;17.77;;;;;;;1.76;96.42;98075.66;5138094;27;20118;-77
2021/12/01 04:02:37;;;;;;;44.25;19.17;;;;;;;1.72;96.64;98078.47;5138376;27;20515;-76
2021/12/01 04:05:07;;;;;;;53.42;19.75;;;;;;;1.79;96.36;98080.81;5137512;27;20063;-78
2021/12/01 04:07:34;;;;;;;44.10;19.13;;;;;;;1.68;96.77;98087.53;5137845;27;20058;-76
2021/12/01 04:10:03;;;;;;;47.60;19.38;;;;;;;1.74;96.70;98081.91;5137814;27;20047;-77
2021/12/01 04:12:30;;;;;;;39.63;18.63;;;;;;;1.76;96.07;98094.28;5137633;27;20074;-76
2021/12/01 04:14:58;;;;;;;32.13;16.67;;;;;;;1.83;95.52;98093.03;5137753;27;20523;-76
2021/12/01 04:17:25;;;;;;;34.17;17.05;;;;;;;1.67;96.18;98087.63;5137542;27;20377;-77
2021/12/01 04:19:53;;;;;;;39.05;16.83;;;;;;;1.73;95.66;98090.84;5137193;27;20070;-76
2021/12/01 04:22:22;;;;;;;31.88;16.50;;;;;;;1.81;94.84;98087.81;5137316;27;20050;-76
2021/12/01 04:24:49;;;;;;;30.15;16.15;;;;;;;1.76;94.93;98086.28;5137271;27;20050;-77
2021/12/01 04:27:17;;;;;;;27.63;15.13;;;;;;;1.66;94.99;98097.41;5137292;27;20053;-76
2021/12/01 04:29:44;;;;;;;29.98;16.67;;;;;;;1.64;95.36;98103.75;5137173;27;20050;-76
2021/12/01 04:32:12;;;;;;;30.35;16.92;;;;;;;1.65;95.92;98108.97;5137115;27;20043;-76
2021/12/01 04:34:39;;;;;;;30.80;17.05;;;;;;;1.60;96.21;98113.66;5136866;27;20133;-76
2021/12/01 04:37:07;;;;;;;31.25;16.27;;;;;;;1.60;95.82;98121.66;5137136;27;20118;-76
2021/12/01 04:39:36;;;;;;;28.08;15.57;;;;;;;1.62;95.54;98122.44;5137005;27;20066;-76
2021/12/01 04:42:05;;;;;;;27.65;15.77;;;;;;;1.71;94.66;98129.97;5136966;27;20122;-77
2021/12/01 04:44:35;;;;;;;28.83;15.25;;;;;;;1.68;93.74;98151.41;5136930;27;20516;-76
2021/12/01 04:47:04;;;;;;;28.67;15.98;;;;;;;1.60;94.01;98164.22;5136921;27;20043;-77
2021/12/01 04:49:34;;;;;;;27.33;14.93;;;;;;;1.61;94.04;98173.94;5136557;27;20039;-76
2021/12/01 04:52:02;;;;;;;28.08;15.50;;;;;;;1.59;93.99;98176.66;5136269;27;20095;-79
2021/12/01 04:54:30;;;;;;;30.15;15.77;;;;;;;1.63;94.25;98184.50;5136910;27;20039;-76
2021/12/01 04:56:59;;;;;;;30.85;16.33;;;;;;;1.62;94.45;98181.00;5136899;27;20050;-76
2021/12/01 04:59:26;;;;;;;35.47;16.98;;;;;;;1.59;94.68;98195.28;5136588;27;20074;-76
2021/12/01 05:01:55;;;;;;;32.25;16.38;;;;;;;1.57;94.99;98201.63;5136725;27;20076;-76
2021/12/01 05:04:24;;;;;;;30.48;16.05;;;;;;;1.61;93.85;98208.53;5136298;27;20553;-77
2021/12/01 05:06:51;;;;;;;29.13;15.75;;;;;;;1.63;93.17;98209.34;5136653;27;20534;-76
2021/12/01 05:09:19;;;;;;;28.00;14.35;;;;;;;1.61;91.28;98216.53;5136589;27;20043;-76
2021/12/01 05:11:46;;;;;;;24.88;12.48;;;;;;;1.66;90.77;98225.16;5136482;27;20126;-76
2021/12/01 05:14:16;;;;;;;29.85;15.40;;;;;;;1.56;90.14;98227.38;5135965;27;20134;-77
2021/12/01 05:16:44;;;;;;;28.10;13.93;;;;;;;1.56;89.89;98231.84;5136175;27;20506;-76
2021/12/01 05:19:12;;;;;;;25.88;12.77;;;;;;;1.52;90.53;98240.91;5135919;27;20063;-76
2021/12/01 05:21:40;;;;;;;25.05;13.27;;;;;;;1.49;90.53;98243.72;5136419;27;20066;-76
2021/12/01 05:24:07;;;;;;;22.92;12.32;;;;;;;1.49;90.42;98254.34;5136167;27;20043;-76
2021/12/01 05:26:35;;;;;;;24.58;12.70;;;;;;;1.54;88.95;98257.66;5135523;27;20138;-76
2021/12/01 05:29:03;;;;;;;26.25;13.10;;;;;;;1.51;89.42;98268.44;5135705;27;20095;-76
2021/12/01 05:31:33;;;;;;;27.88;13.52;;;;;;;1.42;89.29;98269.72;5135807;27;20043;-77
2021/12/01 05:34:00;;;;;;;23.90;12.88;;;;;;;1.40;88.68;98267.09;5136060;27;20071;-76
2021/12/01 05:36:28;;;;;;;23.80;12.13;;;;;;;1.34;88.71;98274.50;5132649;27;20560;-77
2021/12/01 05:38:55;;;;;;;25.10;12.95;;;;;;;1.32;88.54;98284.34;5132715;27;20046;-76
2021/12/01 05:41:23;;;;;;;24.63;11.85;;;;;;;1.23;88.41;98294.47;5132185;27;20051;-76
2021/12/01 05:43:50;;;;;;;26.98;13.57;;;;;;;1.33;87.77;98296.72;5132609;27;20074;-76
2021/12/01 05:46:18;;;;;;;25.30;13.73;;;;;;;1.28;88.26;98303.13;5132213;27;20047;-76
2021/12/01 05:48:48;;;;;;;24.58;12.63;;;;;;;1.22;88.56;98308.66;5132573;27;20069;-76
2021/12/01 05:51:16;;;;;;;24.15;11.85;;;;;;;1.26;88.83;98312.06;5132361;27;20058;-76
2021/12/01 05:53:43;;;;;;;23.50;12.73;;;;;;;1.23;89.29;98323.72;5131897;27;20377;-76
2021/12/01 05:56:11;;;;;;;25.85;13.15;;;;;;;1.22;89.72;98321.97;5131818;27;20109;-77
2021/12/01 05:58:38;;;;;;;24.90;12.85;;;;;;;1.24;89.56;98328.13;5132203;27;20131;-77
2021/12/01 06:01:06;;;;;;;24.02;12.23;;;;;;;1.17;90.09;98320.47;5132076;27;20054;-76
2021/12/01 06:03:33;;;;;;;25.50;13.52;;;;;;;1.21;89.73;98330.88;5132274;27;20122;-76
2021/12/01 06:06:02;;;;;;;29.85;14.50;;;;;;;1.15;90.41;98336.47;5131624;27;20119;-76
2021/12/01 06:08:30;;;;;;;27.67;14.68;;;;;;;1.22;90.00;98342.41;5131935;27;20138;-78
2021/12/01 06:10:57;;;;;;;37.38;18.25;;;;;;;1.18;89.99;98338.16;5132127;27;20135;-76
2021/12/01 06:13:24;;;;;;;37.20;19.08;;;;;;;1.19;90.20;98345.19;5131909;27;20066;-80
2021/12/01 06:15:52;;;;;;;45.83;22.27;;;;;;;1.15;90.67;98352.44;5135000;27;20039;-77
2021/12/01 06:18:20;;;;;;;33.67;18.23;;;;;;;1.18;90.29;98354.09;5135183;27;20172;-77
2021/12/01 06:20:47;;;;;;;43.47;20.80;;;;;;;1.22;90.37;98372.50;5135137;27;20552;-76
2021/12/01 06:23:17;;;;;;;40.65;20.52;;;;;;;1.14;90.78;98369.31;5135106;27;20050;-76
2021/12/01 06:25:44;;;;;;;43.65;22.95;;;;;;;1.15;90.99;98371.91;5135010;27;20111;-76
2021/12/01 06:28:12;;;;;;;74.55;39.10;;;;;;;1.08;91.19;98382.88;5135062;27;20069;-76
2021/12/01 06:30:39;;;;;;;151.30;64.57;;;;;;;1.13;91.22;98381.75;5134823;27;20047;-76
2021/12/01 06:33:07;;;;;;;108.55;45.92;;;;;;;1.23;90.48;98390.25;5134971;27;20043;-76
2021/12/01 06:35:35;;;;;;;53.30;25.42;;;;;;;1.16;90.72;98388.72;5135152;27;20077;-76
2021/12/01 06:38:03;;;;;;;59.00;29.23;;;;;;;1.09;91.41;98397.91;5134651;27;20518;-76
2021/12/01 06:40:32;;;;;;;38.83;21.02;;;;;;;1.11;91.32;98406.69;5134866;27;20111;-76
2021/12/01 06:43:00;;;;;;;49.53;25.08;;;;;;;1.11;91.86;98401.34;5134883;27;20067;-76
2021/12/01 06:45:28;;;;;;;54.38;25.23;;;;;;;1.14;91.41;98409.22;5134610;27;20054;-77
2021/12/01 06:47:55;;;;;;;43.70;21.42;;;;;;;1.08;91.61;98410.34;5134804;27;20126;-76
2021/12/01 06:50:23;;;;;;;49.00;24.05;;;;;;;1.12;91.73;98411.06;5134548;27;20100;-76
2021/12/01 06:52:50;;;;;;;52.67;26.48;;;;;;;1.09;91.57;98412.06;5134612;27;20071;-76
2021/12/01 06:55:20;;;;;;;89.95;47.95;;;;;;;1.10;91.61;98418.25;5134671;27;20066;-76
2021/12/01 06:57:49;;;;;;;122.22;58.08;;;;;;;1.08;91.48;98410.34;5134580;27;20492;-77
2021/12/01 07:00:18;;;;;;;98.78;50.63;;;;;;;1.09;91.08;98411.19;5134086;27;20043;-76
2021/12/01 07:02:46;;;;;;;144.70;98.10;;;;;;;1.10;90.77;98416.47;5134364;27;20050;-76
2021/12/01 07:05:14;;;;;;;73.90;50.63;;;;;;;1.09;90.64;98422.72;5134384;27;20078;-76
2021/12/01 07:07:41;;;;;;;65.78;38.70;;;;;;;1.10;90.72;98421.78;5133632;27;20050;-76
2021/12/01 07:10:11;;;;;;;55.55;31.92;;;;;;;1.08;90.47;98417.44;5134428;27;20142;-76
2021/12/01 07:12:38;;;;;;;43.78;24.45;;;;;;;1.07;90.69;98419.25;5134372;27;20074;-76
2021/12/01 07:15:08;;;;;;;47.17;24.83;;;;;;;1.12;90.45;98424.38;5134187;27;20054;-77
2021/12/01 07:17:36;;;;;;;49.40;28.42;;;;;;;1.07;90.51;98424.56;5134394;27;20069;-76
2021/12/01 07:20:04;;;;;;;83.28;44.92;;;;;;;1.10;90.52;98423.56;5134216;27;20130;-76
2021/12/01 07:22:32;;;;;;;113.53;55.10;;;;;;;1.12;90.67;98429.69;5134203;27;20039;-76
2021/12/01 07:24:59;;;;;;;54.35;28.98;;;;;;;1.12;90.77;98422.59;5134204;27;20047;-76
2021/12/01 07:27:26;;;;;;;33.97;17.33;;;;;;;1.09;90.80;98432.47;5133992;27;20552;-76
2021/12/01 07:29:54;;;;;;;33.05;17.92;;;;;;;1.13;90.62;98436.72;5134630;27;20047;-76
2021/12/01 07:32:23;;;;;;;31.70;16.65;;;;;;;1.15;90.37;98438.41;5134124;27;20122;-76
2021/12/01 07:34:50;;;;;;;33.97;18.05;;;;;;;1.13;90.82;98442.06;5134183;27;20066;-76
2021/12/01 07:37:19;;;;;;;39.20;21.48;;;;;;;1.10;91.13;98440.41;5134107;27;20047;-76
2021/12/01 07:39:47;;;;;;;34.67;19.75;;;;;;;1.18;90.78;98447.19;5133978;27;20054;-76
2021/12/01 07:42:16;;;;;;;29.10;16.42;;;;;;;1.19;91.23;98448.94;5133792;27;20043;-77
2021/12/01 07:44:44;;;;;;;30.45;16.38;;;;;;;1.18;90.88;98448.06;5134252;27;20047;-76
2021/12/01 07:47:12;;;;;;;27.58;14.70;;;;;;;1.25;90.56;98443.38;5134041;27;20444;-76
2021/12/01 07:49:41;;;;;;;23.83;13.20;;;;;;;1.23;90.66;98442.56;5135538;27;20493;-79
2021/12/01 07:52:09;;;;;;;26.92;14.18;;;;;;;1.33;90.01;98445.72;5137521;27;20076;-76
2021/12/01 07:54:39;;;;;;;26.33;13.90;;;;;;;1.32;90.52;98455.47;5154670;27;20062;-76
2021/12/01 07:57:07;;;;;;;24.55;13.30;;;;;;;1.33;90.47;98451.88;5154243;27;20042;-76
2021/12/01 07:59:34;;;;;;;26.33;13.50;;;;;;;1.22;90.75;98456.78;5154518;27;20042;-76
2021/12/01 08:02:02;;;;;;;23.83;12.15;;;;;;;1.47;89.85;98458.47;5154738;27;20495;-77
2021/12/01 08:04:30;;;;;;;23.98;12.77;;;;;;;1.46;89.60;98448.75;5154638;27;20137;-77
2021/12/01 08:06:59;;;;;;;30.38;15.45;;;;;;;1.45;89.31;98450.53;5154472;27;20484;-78
2021/12/01 08:09:26;;;;;;;27.00;14.25;;;;;;;1.41;89.85;98446.25;5154584;27;20039;-78
2021/12/01 08:11:54;;;;;;;26.58;13.68;;;;;;;1.44;90.14;98452.34;5154229;27;20070;-78
2021/12/01 08:14:23;;;;;;;31.17;14.55;;;;;;;1.58;89.14;98464.19;5132626;27;20043;-78
2021/12/01 08:16:51;;;;;;;33.00;15.55;;;;;;;1.52;89.16;98462.66;5132313;27;20138;-78
2021/12/01 08:19:18;;;;;;;28.33;13.65;;;;;;;1.61;88.90;98465.84;5131579;27;20058;-77
2021/12/01 08:21:49;;;;;;;26.88;14.30;;;;;;;1.51;88.61;98471.56;5133779;27;20416;-78
2021/12/01 08:24:19;;;;;;;25.88;14.00;;;;;;;1.38;89.01;98462.34;5136036;27;20467;-77
2021/12/01 08:26:47;;;;;;;31.17;16.55;;;;;;;1.54;89.02;98458.13;5134302;27;20093;-77
2021/12/01 08:29:15;;;;;;;29.58;14.77;;;;;;;1.58;88.54;98465.06;5133571;27;20099;-77
2021/12/01 08:31:42;;;;;;;25.17;13.50;;;;;;;1.72;87.71;98463.63;5134195;27;20122;-77
2021/12/01 08:34:11;;;;;;;36.25;18.38;;;;;;;1.68;88.58;98468.19;5133681;27;20051;-77
2021/12/01 08:36:38;;;;;;;45.75;22.05;;;;;;;1.67;88.78;98461.16;5134001;27;20075;-77
2021/12/01 08:39:06;;;;;;;36.95;17.75;;;;;;;1.67;87.68;98470.94;5133822;27;20043;-78
2021/12/01 08:41:35;;;;;;;29.00;15.07;;;;;;;1.86;87.04;98463.03;5133338;27;20511;-77
2021/12/01 08:44:02;;;;;;;27.95;14.07;;;;;;;1.77;87.51;98463.41;5133725;27;20130;-79
2021/12/01 08:46:30;;;;;;;28.08;15.35;;;;;;;1.86;87.04;98461.22;5133402;27;20125;-78
2021/12/01 08:48:58;;;;;;;80.28;24.42;;;;;;;1.94;86.41;98471.56;5133783;27;20064;-77
2021/12/01 08:51:26;;;;;;;111.32;32.05;;;;;;;1.83;87.23;98473.78;5133182;27;20134;-78
2021/12/01 08:53:53;;;;;;;41.97;16.33;;;;;;;1.85;85.98;98475.47;5133592;27;20097;-78
2021/12/01 08:56:21;;;;;;;24.10;13.30;;;;;;;1.87;86.44;98478.09;5132968;27;20054;-73
2021/12/01 08:58:50;;;;;;;31.40;15.88;;;;;;;2.07;85.13;98476.34;5133424;27;20096;-78
2021/12/01 09:01:17;;;;;;;21.65;11.43;;;;;;;1.95;85.49;98464.44;5133471;27;20131;-78
2021/12/01 09:03:45;;;;;;;30.83;15.15;;;;;;;1.97;85.88;98462.56;5133482;27;20051;-78
2021/12/01 09:06:12;;;;;;;28.63;13.95;;;;;;;1.95;86.33;98462.66;5133279;27;20070;-78
2021/12/01 09:08:40;;;;;;;21.25;11.38;;;;;;;2.11;85.37;98459.31;5133041;27;20134;-78
2021/12/01 09:11:08;;;;;;;20.67;10.55;;;;;;;2.06;85.23;98448.00;5132857;27;20065;-78
2021/12/01 09:13:37;;;;;;;24.17;11.88;;;;;;;2.09;84.95;98445.19;5133268;27;20147;-78
2021/12/01 09:16:06;;;;;;;20.48;10.88;;;;;;;2.01;84.89;98443.72;5133195;27;20075;-78
2021/12/01 09:18:34;;;;;;;21.25;10.95;;;;;;;1.97;84.27;98450.13;5133067;27;20043;-77
2021/12/01 09:21:02;;;;;;;27.23;13.07;;;;;;;2.13;85.03;98462.75;5132685;27;20075;-77
2021/12/01 09:23:30;;;;;;;30.90;14.50;;;;;;;2.18;83.93;98460.75;5133082;27;20047;-78
2021/12/01 09:25:58;;;;;;;25.35;13.73;;;;;;;2.14;83.98;98470.69;5131886;27;20428;-77
2021/12/01 09:28:26;;;;;;;21.75;10.73;;;;;;;2.12;84.11;98461.91;5132550;27;20122;-78
2021/12/01 09:30:55;;;;;;;20.25;10.32;;;;;;;2.23;83.98;98461.41;5131988;27;20819;-77
2021/12/01 09:33:27;;;;;;;25.88;12.05;;;;;;;2.38;82.69;98461.69;5131708;27;20043;-77
2021/12/01 09:35:54;;;;;;;34.03;13.55;;;;;;;2.38;81.16;98456.34;5137568;27;20043;-78
2021/12/01 09:38:22;;;;;;;40.65;18.55;;;;;;;2.36;82.17;98460.88;5153292;27;20113;-77
2021/12/01 09:40:52;;;;;;;28.13;13.57;;;;;;;2.26;83.40;98455.97;5152195;27;20054;-77
2021/12/01 09:43:21;;;;;;;33.47;14.80;;;;;;;2.30;82.71;98454.03;5152889;27;20122;-77
2021/12/01 09:45:49;;;;;;;54.80;19.63;;;;;;;2.38;82.03;98461.69;5151733;27;20050;-77
2021/12/01 09:48:17;;;;;;;43.17;16.60;;;;;;;2.32;82.74;98460.16;5153015;27;20043;-77
2021/12/01 09:50:46;;;;;;;44.97;17.45;;;;;;;2.59;80.49;98454.53;5148156;27;20051;-77
2021/12/01 09:53:14;;;;;;;69.25;21.58;;;;;;;2.53;78.69;98460.13;5132052;27;20067;-77
2021/12/01 09:55:43;;;;;;;83.40;23.48;;;;;;;2.46;79.61;98455.09;5132036;27;20047;-77
2021/12/01 09:58:13;;;;;;;96.78;29.10;;;;;;;2.40;81.74;98449.16;5131870;27;20043;-77
2021/12/01 10:00:44;;;;;;;27.17;12.75;;;;;;;2.38;80.95;98441.22;5132426;27;20043;-76
2021/12/01 10:03:12;;;;;;;46.75;16.38;;;;;;;2.45;79.86;98449.81;5133661;27;20050;-77
2021/12/01 10:06:02;;;;;;;34.08;13.05;;;;;;;2.40;80.87;98441.16;5133620;27;20067;-79
2021/12/01 10:08:33;;;;;;;36.78;17.48;;;;;;;2.43;80.49;98444.53;5133049;27;20043;-77
2021/12/01 10:11:04;;;;;;;42.08;15.20;;;;;;;2.50;80.52;98447.78;5137125;27;20117;-78
2021/12/01 10:13:34;;;;;;;24.83;11.95;;;;;;;2.44;80.91;98445.41;5136480;27;20065;-79
2021/12/01 10:16:05;;;;;;;32.22;14.77;;;;;;;2.51;80.96;98454.84;5131420;27;20066;-78
2021/12/01 10:18:37;;;;;;;48.45;16.73;;;;;;;2.59;82.45;98457.19;5134614;27;20401;-79
2021/12/01 10:21:10;;;;;;;38.25;16.25;;;;;;;2.74;81.55;98452.94;5134649;27;20130;-78
2021/12/01 10:23:39;;;;;;;37.47;16.52;;;;;;;2.74;81.34;98448.47;5134896;27;20039;-78
2021/12/01 10:26:17;;;;;;;28.95;12.65;;;;;;;2.89;78.38;98452.22;5133717;27;20091;-78
2021/12/01 10:28:46;;;;;;;22.65;11.20;;;;;;;2.87;79.45;98450.59;5131439;27;20043;-78
2021/12/01 10:31:14;;;;;;;24.35;11.43;;;;;;;2.86;77.06;98447.03;5133867;27;20066;-78
2021/12/01 10:33:42;;;;;;;25.88;12.75;;;;;;;2.72;78.67;98441.50;5131087;27;20400;-77
2021/12/01 10:36:12;;;;;;;40.45;16.27;;;;;;;2.54;79.58;98438.72;5133908;27;20039;-78
2021/12/01 10:38:45;;;;;;;28.55;14.25;;;;;;;2.74;79.95;98440.47;5133774;27;20123;-78
2021/12/01 10:41:14;;;;;;;43.30;18.40;;;;;;;2.85;79.92;98445.31;5134595;27;20035;-78
2021/12/01 10:43:45;;;;;;;44.08;20.40;;;;;;;2.86;79.12;98446.19;5133765;27;20512;-78
2021/12/01 10:46:14;;;;;;;26.08;13.32;;;;;;;2.97;78.92;98438.53;5135061;27;20040;-79
2021/12/01 10:48:42;;;;;;;21.58;11.32;;;;;;;2.98;78.91;98437.59;5130544;27;20480;-78
2021/12/01 10:51:14;;;;;;;25.17;12.95;;;;;;;3.22;78.05;98437.34;5132953;27;20062;-78
2021/12/01 10:53:42;;;;;;;19.98;10.50;;;;;;;3.03;77.26;98434.69;5133715;27;20043;-78
2021/12/01 10:56:09;;;;;;;30.42;15.02;;;;;;;2.76;77.53;98429.75;5133377;27;20039;-78
2021/12/01 10:58:38;;;;;;;26.42;11.27;;;;;;;2.72;77.99;98426.34;5133178;27;20074;-79
2021/12/01 11:01:21;;;;;;;20.27;9.60;;;;;;;2.81;78.90;98427.72;5134429;27;20039;-78
2021/12/01 11:03:51;;;;;;;24.10;11.85;;;;;;;2.78;79.10;98427.88;5136243;27;20047;-78
2021/12/01 11:06:47;;;;;;;24.90;12.35;;;;;;;2.80;77.88;98427.78;5134291;27;20043;-78
2021/12/01 11:09:21;;;;;;;21.23;11.30;;;;;;;2.82;77.86;98424.13;5132878;27;20054;-79
2021/12/01 11:11:52;;;;;;;32.88;17.02;;;;;;;2.85;77.19;98417.75;5133003;27;20051;-77
2021/12/01 11:14:21;;;;;;;21.80;10.68;;;;;;;2.95;78.21;98428.84;5134449;27;20057;-79
2021/12/01 11:16:48;;;;;;;21.95;10.98;;;;;;;2.97;77.56;98426.97;5129761;27;20062;-76
2021/12/01 11:19:16;;;;;;;18.92;10.00;;;;;;;2.96;77.64;98430.59;5133121;27;20492;-79
2021/12/01 11:21:45;;;;;;;26.23;12.40;;;;;;;2.90;76.73;98423.75;5131993;27;20073;-78
2021/12/01 11:24:16;;;;;;;23.55;10.68;;;;;;;2.80;77.69;98425.13;5132532;27;20058;-78
2021/12/01 11:26:45;;;;;;;23.50;10.30;;;;;;;2.73;76.67;98421.88;5133203;27;20504;-78
2021/12/01 11:29:13;;;;;;;21.27;9.98;;;;;;;2.77;76.34;98419.91;5133390;27;20062;-79
2021/12/01 11:31:43;;;;;;;76.15;26.40;;;;;;;2.91;76.48;98420.16;5132904;27;20065;-78
2021/12/01 11:34:13;;;;;;;93.40;30.13;;;;;;;2.95;76.16;98411.06;5132216;27;20043;-78